sensor_id;sensor_type;location;lat;lon;timestamp;P1;durP1;ratioP1;P2;durP2;ratioP2
12832;SDS011;6483;51.310;4.462;2022-07-15T00:01:19;7.68;;;3.10;;
12832;SDS011;6483;51.310;4.462;2022-07-15T00:03:45;6.47;;;3.20;;
12832;SDS011;6483;51.310;4.462;2022-07-15T00:06:11;3.50;;;3.20;;
12832;SDS011;6483;51.310;4.462;2022-07-15T00:08:39;6.38;;;2.88;;
12832;SDS011;6483;51.310;4.462;2022-07-15T00:11:05;9.07;;;3.83;;
12832;SDS011;6483;51.310;4.462;2022-07-15T00:13:31;3.97;;;2.90;;
12832;SDS011;6483;51.310;4.462;2022-07-15T00:15:57;5.90;;;3.25;;
12832;SDS011;6483;51.310;4.462;2022-07-15T00:18:23;4.18;;;3.15;;
12832;SDS011;6483;51.310;4.462;2022-07-15T00:20:49;8.05;;;3.40;;
12832;SDS011;6483;51.310;4.462;2022-07-15T00:23:17;4.47;;;3.15;;
12832;SDS011;6483;51.310;4.462;2022-07-15T00:25:43;6.45;;;3.58;;
12832;SDS011;6483;51.310;4.462;2022-07-15T00:28:09;5.72;;;3.60;;
12832;SDS011;6483;51.310;4.462;2022-07-15T00:30:37;9.18;;;3.92;;
12832;SDS011;6483;51.310;4.462;2022-07-15T00:33:04;8.90;;;3.72;;
12832;SDS011;6483;51.310;4.462;2022-07-15T00:35:33;4.63;;;2.97;;
12832;SDS011;6483;51.310;4.462;2022-07-15T00:38:01;8.48;;;3.03;;
12832;SDS011;6483;51.310;4.462;2022-07-15T00:40:28;4.88;;;3.10;;
12832;SDS011;6483;51.310;4.462;2022-07-15T00:42:54;3.83;;;3.17;;
12832;SDS011;6483;51.310;4.462;2022-07-15T00:45:21;7.85;;;3.30;;
12832;SDS011;6483;51.310;4.462;2022-07-15T00:47:49;8.35;;;3.53;;
12832;SDS011;6483;51.310;4.462;2022-07-15T00:50:15;6.13;;;3.17;;
12832;SDS011;6483;51.310;4.462;2022-07-15T00:53:06;5.97;;;3.15;;
12832;SDS011;6483;51.310;4.462;2022-07-15T00:55:36;5.55;;;3.05;;
12832;SDS011;6483;51.310;4.462;2022-07-15T00:58:03;4.10;;;2.75;;
12832;SDS011;6483;51.310;4.462;2022-07-15T01:00:30;5.15;;;2.70;;
12832;SDS011;6483;51.310;4.462;2022-07-15T01:02:57;4.80;;;3.38;;
12832;SDS011;6483;51.310;4.462;2022-07-15T01:05:26;3.28;;;2.97;;
12832;SDS011;6483;51.310;4.462;2022-07-15T01:07:55;5.45;;;3.08;;
12832;SDS011;6483;51.310;4.462;2022-07-15T01:10:22;3.42;;;2.67;;
12832;SDS011;6483;51.310;4.462;2022-07-15T01:12:49;6.07;;;2.70;;
12832;SDS011;6483;51.310;4.462;2022-07-15T01:15:16;4.82;;;3.10;;
12832;SDS011;6483;51.310;4.462;2022-07-15T01:17:43;7.55;;;3.35;;
12832;SDS011;6483;51.310;4.462;2022-07-15T01:20:09;4.97;;;3.08;;
12832;SDS011;6483;51.310;4.462;2022-07-15T01:22:37;9.05;;;3.50;;
12832;SDS011;6483;51.310;4.462;2022-07-15T01:25:03;10.73;;;4.18;;
12832;SDS011;6483;51.310;4.462;2022-07-15T01:27:30;4.20;;;2.95;;
12832;SDS011;6483;51.310;4.462;2022-07-15T01:29:57;5.63;;;2.75;;
12832;SDS011;6483;51.310;4.462;2022-07-15T01:32:25;6.40;;;2.95;;
12832;SDS011;6483;51.310;4.462;2022-07-15T01:34:51;5.93;;;2.80;;
12832;SDS011;6483;51.310;4.462;2022-07-15T01:37:20;4.80;;;3.22;;
12832;SDS011;6483;51.310;4.462;2022-07-15T01:39:46;6.00;;;3.28;;
12832;SDS011;6483;51.310;4.462;2022-07-15T01:42:18;7.15;;;3.30;;
12832;SDS011;6483;51.310;4.462;2022-07-15T01:44:44;7.38;;;3.30;;
12832;SDS011;6483;51.310;4.462;2022-07-15T01:47:13;7.72;;;2.92;;
12832;SDS011;6483;51.310;4.462;2022-07-15T01:49:39;6.40;;;3.03;;
12832;SDS011;6483;51.310;4.462;2022-07-15T01:52:06;4.85;;;2.95;;
12832;SDS011;6483;51.310;4.462;2022-07-15T01:54:35;10.73;;;3.50;;
12832;SDS011;6483;51.310;4.462;2022-07-15T01:57:05;6.63;;;3.08;;
12832;SDS011;6483;51.310;4.462;2022-07-15T01:59:31;5.97;;;2.63;;
12832;SDS011;6483;51.310;4.462;2022-07-15T02:02:00;6.97;;;3.22;;
12832;SDS011;6483;51.310;4.462;2022-07-15T02:04:27;6.80;;;3.88;;
12832;SDS011;6483;51.310;4.462;2022-07-15T02:06:56;7.47;;;3.25;;
12832;SDS011;6483;51.310;4.462;2022-07-15T02:09:22;9.25;;;3.97;;
12832;SDS011;6483;51.310;4.462;2022-07-15T02:11:48;7.22;;;3.20;;
12832;SDS011;6483;51.310;4.462;2022-07-15T02:14:13;7.75;;;3.75;;
12832;SDS011;6483;51.310;4.462;2022-07-15T02:16:39;4.68;;;2.88;;
12832;SDS011;6483;51.310;4.462;2022-07-15T02:19:05;7.43;;;3.53;;
12832;SDS011;6483;51.310;4.462;2022-07-15T02:21:33;9.13;;;4.00;;
12832;SDS011;6483;51.310;4.462;2022-07-15T02:24:05;4.65;;;3.35;;
12832;SDS011;6483;51.310;4.462;2022-07-15T02:26:31;4.57;;;3.00;;
12832;SDS011;6483;51.310;4.462;2022-07-15T02:28:57;8.98;;;3.10;;
12832;SDS011;6483;51.310;4.462;2022-07-15T02:31:26;7.18;;;3.38;;
12832;SDS011;6483;51.310;4.462;2022-07-15T02:33:52;5.63;;;3.13;;
12832;SDS011;6483;51.310;4.462;2022-07-15T02:36:21;6.63;;;3.85;;
12832;SDS011;6483;51.310;4.462;2022-07-15T02:39:10;8.05;;;3.20;;
12832;SDS011;6483;51.310;4.462;2022-07-15T02:41:36;5.70;;;3.03;;
12832;SDS011;6483;51.310;4.462;2022-07-15T02:44:01;6.18;;;3.30;;
12832;SDS011;6483;51.310;4.462;2022-07-15T02:46:28;6.05;;;3.20;;
12832;SDS011;6483;51.310;4.462;2022-07-15T02:48:57;5.32;;;2.92;;
12832;SDS011;6483;51.310;4.462;2022-07-15T02:51:22;6.72;;;3.30;;
12832;SDS011;6483;51.310;4.462;2022-07-15T02:53:48;4.78;;;3.15;;
12832;SDS011;6483;51.310;4.462;2022-07-15T02:56:14;6.35;;;3.15;;
12832;SDS011;6483;51.310;4.462;2022-07-15T02:58:40;5.00;;;3.10;;
12832;SDS011;6483;51.310;4.462;2022-07-15T03:01:06;6.68;;;3.20;;
12832;SDS011;6483;51.310;4.462;2022-07-15T03:03:32;5.35;;;3.20;;
12832;SDS011;6483;51.310;4.462;2022-07-15T03:05:57;3.25;;;2.80;;
12832;SDS011;6483;51.310;4.462;2022-07-15T03:08:24;7.25;;;3.38;;
12832;SDS011;6483;51.310;4.462;2022-07-15T03:10:50;6.93;;;3.28;;
12832;SDS011;6483;51.310;4.462;2022-07-15T03:13:15;4.05;;;3.15;;
12832;SDS011;6483;51.310;4.462;2022-07-15T03:15:41;6.82;;;3.63;;
12832;SDS011;6483;51.310;4.462;2022-07-15T03:18:06;4.35;;;3.22;;
12832;SDS011;6483;51.310;4.462;2022-07-15T03:20:32;5.77;;;3.30;;
12832;SDS011;6483;51.310;4.462;2022-07-15T03:22:58;5.55;;;3.22;;
12832;SDS011;6483;51.310;4.462;2022-07-15T03:25:27;6.53;;;3.37;;
12832;SDS011;6483;51.310;4.462;2022-07-15T03:27:52;7.07;;;3.00;;
12832;SDS011;6483;51.310;4.462;2022-07-15T03:30:18;6.80;;;3.20;;
12832;SDS011;6483;51.310;4.462;2022-07-15T03:32:49;5.90;;;2.90;;
12832;SDS011;6483;51.310;4.462;2022-07-15T03:35:14;5.13;;;2.50;;
12832;SDS011;6483;51.310;4.462;2022-07-15T03:37:43;7.33;;;3.30;;
12832;SDS011;6483;51.310;4.462;2022-07-15T03:40:10;5.07;;;3.53;;
12832;SDS011;6483;51.310;4.462;2022-07-15T03:42:40;5.63;;;2.93;;
12832;SDS011;6483;51.310;4.462;2022-07-15T03:45:06;5.82;;;3.25;;
12832;SDS011;6483;51.310;4.462;2022-07-15T03:47:35;4.85;;;2.90;;
12832;SDS011;6483;51.310;4.462;2022-07-15T03:50:01;5.73;;;2.67;;
12832;SDS011;6483;51.310;4.462;2022-07-15T03:52:28;6.03;;;3.37;;
12832;SDS011;6483;51.310;4.462;2022-07-15T03:55:00;5.23;;;3.23;;
12832;SDS011;6483;51.310;4.462;2022-07-15T03:57:31;5.63;;;3.07;;
12832;SDS011;6483;51.310;4.462;2022-07-15T03:59:59;6.68;;;3.78;;
12832;SDS011;6483;51.310;4.462;2022-07-15T04:02:28;5.68;;;2.90;;
12832;SDS011;6483;51.310;4.462;2022-07-15T04:04:54;4.57;;;3.20;;
12832;SDS011;6483;51.310;4.462;2022-07-15T04:07:20;7.78;;;3.80;;
12832;SDS011;6483;51.310;4.462;2022-07-15T04:09:48;7.37;;;3.10;;
12832;SDS011;6483;51.310;4.462;2022-07-15T04:12:14;4.20;;;2.88;;
12832;SDS011;6483;51.310;4.462;2022-07-15T04:14:40;7.20;;;3.17;;
12832;SDS011;6483;51.310;4.462;2022-07-15T04:17:08;4.22;;;3.10;;
12832;SDS011;6483;51.310;4.462;2022-07-15T04:19:37;3.38;;;2.55;;
12832;SDS011;6483;51.310;4.462;2022-07-15T04:22:04;6.85;;;2.88;;
12832;SDS011;6483;51.310;4.462;2022-07-15T04:24:32;7.45;;;2.97;;
12832;SDS011;6483;51.310;4.462;2022-07-15T04:27:01;4.93;;;3.30;;
12832;SDS011;6483;51.310;4.462;2022-07-15T04:29:27;5.30;;;2.88;;
12832;SDS011;6483;51.310;4.462;2022-07-15T04:31:54;4.88;;;2.97;;
12832;SDS011;6483;51.310;4.462;2022-07-15T04:34:20;4.13;;;2.92;;
12832;SDS011;6483;51.310;4.462;2022-07-15T04:36:46;6.28;;;2.95;;
12832;SDS011;6483;51.310;4.462;2022-07-15T04:39:11;4.93;;;3.20;;
12832;SDS011;6483;51.310;4.462;2022-07-15T04:41:40;4.47;;;2.83;;
12832;SDS011;6483;51.310;4.462;2022-07-15T04:44:05;5.60;;;2.85;;
12832;SDS011;6483;51.310;4.462;2022-07-15T04:46:31;5.70;;;2.92;;
12832;SDS011;6483;51.310;4.462;2022-07-15T04:48:57;3.05;;;2.60;;
12832;SDS011;6483;51.310;4.462;2022-07-15T04:51:44;4.57;;;2.55;;
12832;SDS011;6483;51.310;4.462;2022-07-15T04:54:10;4.45;;;2.58;;
12832;SDS011;6483;51.310;4.462;2022-07-15T04:56:36;5.57;;;2.75;;
12832;SDS011;6483;51.310;4.462;2022-07-15T04:59:02;3.63;;;2.30;;
12832;SDS011;6483;51.310;4.462;2022-07-15T05:01:28;2.70;;;2.45;;
12832;SDS011;6483;51.310;4.462;2022-07-15T05:03:53;5.05;;;2.63;;
12832;SDS011;6483;51.310;4.462;2022-07-15T05:06:20;3.83;;;2.50;;
12832;SDS011;6483;51.310;4.462;2022-07-15T05:08:46;5.50;;;2.47;;
12832;SDS011;6483;51.310;4.462;2022-07-15T05:11:11;7.65;;;2.80;;
12832;SDS011;6483;51.310;4.462;2022-07-15T05:13:37;3.60;;;2.15;;
12832;SDS011;6483;51.310;4.462;2022-07-15T05:16:03;3.85;;;2.42;;
12832;SDS011;6483;51.310;4.462;2022-07-15T05:18:31;2.47;;;2.20;;
12832;SDS011;6483;51.310;4.462;2022-07-15T05:20:56;7.75;;;2.53;;
12832;SDS011;6483;51.310;4.462;2022-07-15T05:23:25;5.68;;;2.50;;
12832;SDS011;6483;51.310;4.462;2022-07-15T05:25:51;3.40;;;2.83;;
12832;SDS011;6483;51.310;4.462;2022-07-15T05:28:20;2.40;;;2.20;;
12832;SDS011;6483;51.310;4.462;2022-07-15T05:30:46;5.05;;;2.70;;
12832;SDS011;6483;51.310;4.462;2022-07-15T05:33:18;3.08;;;2.30;;
12832;SDS011;6483;51.310;4.462;2022-07-15T05:35:47;5.95;;;2.47;;
12832;SDS011;6483;51.310;4.462;2022-07-15T05:38:16;5.63;;;2.50;;
12832;SDS011;6483;51.310;4.462;2022-07-15T05:40:45;5.00;;;2.25;;
12832;SDS011;6483;51.310;4.462;2022-07-15T05:43:11;6.25;;;2.72;;
12832;SDS011;6483;51.310;4.462;2022-07-15T05:45:36;3.88;;;2.17;;
12832;SDS011;6483;51.310;4.462;2022-07-15T05:48:02;5.20;;;2.50;;
12832;SDS011;6483;51.310;4.462;2022-07-15T05:50:32;4.30;;;1.98;;
12832;SDS011;6483;51.310;4.462;2022-07-15T05:52:59;4.13;;;1.85;;
12832;SDS011;6483;51.310;4.462;2022-07-15T05:55:25;11.10;;;2.45;;
12832;SDS011;6483;51.310;4.462;2022-07-15T05:57:51;7.28;;;2.30;;
12832;SDS011;6483;51.310;4.462;2022-07-15T06:00:16;8.48;;;1.90;;
12832;SDS011;6483;51.310;4.462;2022-07-15T06:02:42;4.32;;;1.55;;
12832;SDS011;6483;51.310;4.462;2022-07-15T06:05:08;2.38;;;1.50;;
12832;SDS011;6483;51.310;4.462;2022-07-15T06:07:35;2.33;;;1.30;;
12832;SDS011;6483;51.310;4.462;2022-07-15T06:10:02;2.17;;;1.33;;
12832;SDS011;6483;51.310;4.462;2022-07-15T06:12:32;2.67;;;1.10;;
12832;SDS011;6483;51.310;4.462;2022-07-15T06:14:58;4.35;;;1.20;;
12832;SDS011;6483;51.310;4.462;2022-07-15T06:17:23;5.00;;;1.63;;
12832;SDS011;6483;51.310;4.462;2022-07-15T06:19:55;1.55;;;0.75;;
12832;SDS011;6483;51.310;4.462;2022-07-15T06:22:21;3.83;;;1.30;;
12832;SDS011;6483;51.310;4.462;2022-07-15T06:24:50;3.40;;;0.93;;
12832;SDS011;6483;51.310;4.462;2022-07-15T06:27:21;1.52;;;0.88;;
12832;SDS011;6483;51.310;4.462;2022-07-15T06:29:53;4.22;;;1.23;;
12832;SDS011;6483;51.310;4.462;2022-07-15T06:32:21;4.53;;;1.20;;
12832;SDS011;6483;51.310;4.462;2022-07-15T06:34:47;4.55;;;0.95;;
12832;SDS011;6483;51.310;4.462;2022-07-15T06:37:15;2.90;;;0.85;;
12832;SDS011;6483;51.310;4.462;2022-07-15T06:39:42;2.60;;;0.90;;
12832;SDS011;6483;51.310;4.462;2022-07-15T06:42:11;6.32;;;1.00;;
12832;SDS011;6483;51.310;4.462;2022-07-15T06:44:40;7.28;;;1.13;;
12832;SDS011;6483;51.310;4.462;2022-07-15T06:47:08;4.47;;;0.80;;
12832;SDS011;6483;51.310;4.462;2022-07-15T06:49:34;2.72;;;0.90;;
12832;SDS011;6483;51.310;4.462;2022-07-15T06:52:00;1.02;;;0.60;;
12832;SDS011;6483;51.310;4.462;2022-07-15T06:54:27;4.05;;;0.88;;
12832;SDS011;6483;51.310;4.462;2022-07-15T06:56:52;2.70;;;0.90;;
12832;SDS011;6483;51.310;4.462;2022-07-15T06:59:21;3.75;;;0.70;;
12832;SDS011;6483;51.310;4.462;2022-07-15T07:01:47;4.82;;;0.90;;
12832;SDS011;6483;51.310;4.462;2022-07-15T07:04:13;3.95;;;1.00;;
12832;SDS011;6483;51.310;4.462;2022-07-15T07:06:39;3.42;;;1.15;;
12832;SDS011;6483;51.310;4.462;2022-07-15T07:09:04;2.63;;;0.80;;
12832;SDS011;6483;51.310;4.462;2022-07-15T07:11:30;4.47;;;1.35;;
12832;SDS011;6483;51.310;4.462;2022-07-15T07:13:57;3.15;;;0.80;;
12832;SDS011;6483;51.310;4.462;2022-07-15T07:16:24;3.60;;;1.13;;
12832;SDS011;6483;51.310;4.462;2022-07-15T07:18:53;2.67;;;0.75;;
12832;SDS011;6483;51.310;4.462;2022-07-15T07:21:19;5.90;;;0.93;;
12832;SDS011;6483;51.310;4.462;2022-07-15T07:23:45;4.78;;;1.15;;
12832;SDS011;6483;51.310;4.462;2022-07-15T07:26:12;6.57;;;1.33;;
12832;SDS011;6483;51.310;4.462;2022-07-15T07:28:42;2.60;;;0.70;;
12832;SDS011;6483;51.310;4.462;2022-07-15T07:31:13;3.40;;;1.00;;
12832;SDS011;6483;51.310;4.462;2022-07-15T07:33:40;3.58;;;0.95;;
12832;SDS011;6483;51.310;4.462;2022-07-15T07:36:06;5.25;;;0.90;;
12832;SDS011;6483;51.310;4.462;2022-07-15T07:38:33;3.95;;;0.73;;
12832;SDS011;6483;51.310;4.462;2022-07-15T07:41:02;2.38;;;0.68;;
12832;SDS011;6483;51.310;4.462;2022-07-15T07:43:31;7.00;;;1.08;;
12832;SDS011;6483;51.310;4.462;2022-07-15T07:46:00;3.30;;;0.80;;
12832;SDS011;6483;51.310;4.462;2022-07-15T07:48:27;1.95;;;0.60;;
12832;SDS011;6483;51.310;4.462;2022-07-15T07:50:54;5.32;;;0.85;;
12832;SDS011;6483;51.310;4.462;2022-07-15T07:53:19;2.42;;;0.90;;
12832;SDS011;6483;51.310;4.462;2022-07-15T07:55:46;2.38;;;0.75;;
12832;SDS011;6483;51.310;4.462;2022-07-15T07:58:15;3.65;;;1.00;;
12832;SDS011;6483;51.310;4.462;2022-07-15T08:00:42;4.78;;;0.90;;
12832;SDS011;6483;51.310;4.462;2022-07-15T08:03:09;2.42;;;0.88;;
12832;SDS011;6483;51.310;4.462;2022-07-15T08:05:35;1.75;;;0.60;;
12832;SDS011;6483;51.310;4.462;2022-07-15T08:08:07;3.75;;;0.90;;
12832;SDS011;6483;51.310;4.462;2022-07-15T08:10:34;3.67;;;0.98;;
12832;SDS011;6483;51.310;4.462;2022-07-15T08:13:00;2.28;;;0.80;;
12832;SDS011;6483;51.310;4.462;2022-07-15T08:15:29;5.72;;;1.75;;
12832;SDS011;6483;51.310;4.462;2022-07-15T08:17:55;3.75;;;0.90;;
12832;SDS011;6483;51.310;4.462;2022-07-15T08:20:21;2.17;;;0.57;;
12832;SDS011;6483;51.310;4.462;2022-07-15T08:22:47;6.18;;;0.80;;
12832;SDS011;6483;51.310;4.462;2022-07-15T08:25:12;2.17;;;0.60;;
12832;SDS011;6483;51.310;4.462;2022-07-15T08:27:41;2.22;;;0.70;;
12832;SDS011;6483;51.310;4.462;2022-07-15T08:30:10;4.75;;;0.68;;
12832;SDS011;6483;51.310;4.462;2022-07-15T08:32:43;5.95;;;0.70;;
12832;SDS011;6483;51.310;4.462;2022-07-15T08:35:09;2.30;;;0.73;;
12832;SDS011;6483;51.310;4.462;2022-07-15T08:37:38;0.82;;;0.45;;
12832;SDS011;6483;51.310;4.462;2022-07-15T08:40:10;2.13;;;1.30;;
12832;SDS011;6483;51.310;4.462;2022-07-15T08:42:37;2.33;;;0.70;;
12832;SDS011;6483;51.310;4.462;2022-07-15T08:45:07;3.80;;;0.60;;
12832;SDS011;6483;51.310;4.462;2022-07-15T08:47:33;1.70;;;0.68;;
12832;SDS011;6483;51.310;4.462;2022-07-15T08:50:02;1.23;;;0.50;;
12832;SDS011;6483;51.310;4.462;2022-07-15T08:52:28;3.03;;;0.75;;
12832;SDS011;6483;51.310;4.462;2022-07-15T08:54:58;1.17;;;0.45;;
12832;SDS011;6483;51.310;4.462;2022-07-15T08:57:24;1.98;;;0.65;;
12832;SDS011;6483;51.310;4.462;2022-07-15T08:59:51;2.03;;;0.63;;
12832;SDS011;6483;51.310;4.462;2022-07-15T09:02:20;0.30;;;0.30;;
12832;SDS011;6483;51.310;4.462;2022-07-15T09:07:34;1.90;;;0.40;;
12832;SDS011;6483;51.310;4.462;2022-07-15T09:10:16;2.58;;;0.60;;
12832;SDS011;6483;51.310;4.462;2022-07-15T09:12:42;1.88;;;0.50;;
12832;SDS011;6483;51.310;4.462;2022-07-15T09:15:08;3.72;;;0.82;;
12832;SDS011;6483;51.310;4.462;2022-07-15T09:17:34;2.10;;;0.68;;
12832;SDS011;6483;51.310;4.462;2022-07-15T09:22:28;1.52;;;0.45;;
12832;SDS011;6483;51.310;4.462;2022-07-15T09:25:07;1.42;;;0.40;;
12832;SDS011;6483;51.310;4.462;2022-07-15T09:27:35;1.55;;;0.60;;
12832;SDS011;6483;51.310;4.462;2022-07-15T09:33:04;1.42;;;0.60;;
12832;SDS011;6483;51.310;4.462;2022-07-15T09:35:49;2.38;;;1.05;;
12832;SDS011;6483;51.310;4.462;2022-07-15T09:38:37;2.17;;;0.60;;
12832;SDS011;6483;51.310;4.462;2022-07-15T09:41:07;3.70;;;0.65;;
12832;SDS011;6483;51.310;4.462;2022-07-15T09:43:42;1.42;;;0.52;;
12832;SDS011;6483;51.310;4.462;2022-07-15T09:46:08;4.10;;;0.80;;
12832;SDS011;6483;51.310;4.462;2022-07-15T09:48:38;1.42;;;0.40;;
12832;SDS011;6483;51.310;4.462;2022-07-15T09:51:04;2.05;;;0.70;;
12832;SDS011;6483;51.310;4.462;2022-07-15T09:53:31;2.08;;;0.65;;
12832;SDS011;6483;51.310;4.462;2022-07-15T09:55:58;1.80;;;0.57;;
12832;SDS011;6483;51.310;4.462;2022-07-15T09:58:24;2.47;;;0.60;;
12832;SDS011;6483;51.310;4.462;2022-07-15T10:00:51;2.40;;;0.65;;
12832;SDS011;6483;51.310;4.462;2022-07-15T10:03:20;2.75;;;0.73;;
12832;SDS011;6483;51.310;4.462;2022-07-15T10:05:51;1.70;;;0.70;;
12832;SDS011;6483;51.310;4.462;2022-07-15T10:08:18;1.77;;;0.50;;
12832;SDS011;6483;51.310;4.462;2022-07-15T10:10:44;2.35;;;0.45;;
12832;SDS011;6483;51.310;4.462;2022-07-15T10:13:33;3.90;;;0.77;;
12832;SDS011;6483;51.310;4.462;2022-07-15T10:19:09;1.67;;;0.47;;
12832;SDS011;6483;51.310;4.462;2022-07-15T10:24:25;1.52;;;0.60;;
12832;SDS011;6483;51.310;4.462;2022-07-15T10:27:04;1.63;;;0.65;;
12832;SDS011;6483;51.310;4.462;2022-07-15T10:29:33;2.13;;;0.60;;
12832;SDS011;6483;51.310;4.462;2022-07-15T10:32:02;0.68;;;0.40;;
12832;SDS011;6483;51.310;4.462;2022-07-15T10:34:29;1.75;;;0.65;;
12832;SDS011;6483;51.310;4.462;2022-07-15T10:36:56;0.98;;;0.40;;
12832;SDS011;6483;51.310;4.462;2022-07-15T10:39:24;1.67;;;0.63;;
12832;SDS011;6483;51.310;4.462;2022-07-15T10:41:59;7.15;;;0.70;;
12832;SDS011;6483;51.310;4.462;2022-07-15T10:44:27;1.75;;;0.38;;
12832;SDS011;6483;51.310;4.462;2022-07-15T10:49:59;3.60;;;0.60;;
12832;SDS011;6483;51.310;4.462;2022-07-15T10:52:26;3.28;;;0.52;;
12832;SDS011;6483;51.310;4.462;2022-07-15T10:55:00;0.90;;;0.50;;
12832;SDS011;6483;51.310;4.462;2022-07-15T11:00:29;1.05;;;0.43;;
12832;SDS011;6483;51.310;4.462;2022-07-15T11:05:27;3.25;;;0.88;;
12832;SDS011;6483;51.310;4.462;2022-07-15T11:07:54;1.55;;;0.60;;
12832;SDS011;6483;51.310;4.462;2022-07-15T11:10:20;2.83;;;0.60;;
12832;SDS011;6483;51.310;4.462;2022-07-15T11:15:22;1.45;;;0.55;;
12832;SDS011;6483;51.310;4.462;2022-07-15T11:17:49;0.90;;;0.60;;
12832;SDS011;6483;51.310;4.462;2022-07-15T11:20:17;1.30;;;0.60;;
12832;SDS011;6483;51.310;4.462;2022-07-15T11:22:44;1.80;;;0.60;;
12832;SDS011;6483;51.310;4.462;2022-07-15T11:30:21;2.53;;;0.80;;
12832;SDS011;6483;51.310;4.462;2022-07-15T11:32:53;0.77;;;0.50;;
12832;SDS011;6483;51.310;4.462;2022-07-15T11:35:19;2.63;;;0.60;;
12832;SDS011;6483;51.310;4.462;2022-07-15T11:37:46;1.52;;;0.60;;
12832;SDS011;6483;51.310;4.462;2022-07-15T11:40:16;1.05;;;0.52;;
12832;SDS011;6483;51.310;4.462;2022-07-15T11:43:01;1.10;;;0.60;;
12832;SDS011;6483;51.310;4.462;2022-07-15T11:45:49;3.20;;;0.88;;
12832;SDS011;6483;51.310;4.462;2022-07-15T11:48:15;1.88;;;0.60;;
12832;SDS011;6483;51.310;4.462;2022-07-15T11:50:48;2.67;;;0.73;;
12832;SDS011;6483;51.310;4.462;2022-07-15T11:53:15;0.50;;;0.50;;
12832;SDS011;6483;51.310;4.462;2022-07-15T11:55:55;1.83;;;0.65;;
12832;SDS011;6483;51.310;4.462;2022-07-15T11:58:28;1.48;;;0.65;;
12832;SDS011;6483;51.310;4.462;2022-07-15T12:00:55;1.58;;;0.80;;
12832;SDS011;6483;51.310;4.462;2022-07-15T12:03:21;2.13;;;0.70;;
12832;SDS011;6483;51.310;4.462;2022-07-15T12:06:03;3.38;;;0.93;;
12832;SDS011;6483;51.310;4.462;2022-07-15T12:08:34;2.25;;;0.73;;
12832;SDS011;6483;51.310;4.462;2022-07-15T12:11:00;2.25;;;0.80;;
12832;SDS011;6483;51.310;4.462;2022-07-15T12:13:27;3.47;;;0.70;;
12832;SDS011;6483;51.310;4.462;2022-07-15T12:15:53;2.63;;;0.90;;
12832;SDS011;6483;51.310;4.462;2022-07-15T12:18:23;2.83;;;0.63;;
12832;SDS011;6483;51.310;4.462;2022-07-15T12:20:49;2.00;;;0.75;;
12832;SDS011;6483;51.310;4.462;2022-07-15T12:23:15;1.35;;;0.80;;
12832;SDS011;6483;51.310;4.462;2022-07-15T12:25:43;4.32;;;1.00;;
12832;SDS011;6483;51.310;4.462;2022-07-15T12:28:09;2.10;;;1.00;;
12832;SDS011;6483;51.310;4.462;2022-07-15T12:30:36;0.75;;;0.75;;
12832;SDS011;6483;51.310;4.462;2022-07-15T12:33:21;3.03;;;1.00;;
12832;SDS011;6483;51.310;4.462;2022-07-15T12:35:48;2.75;;;1.00;;
12832;SDS011;6483;51.310;4.462;2022-07-15T12:38:30;2.35;;;1.20;;
12832;SDS011;6483;51.310;4.462;2022-07-15T12:43:57;5.15;;;1.40;;
12832;SDS011;6483;51.310;4.462;2022-07-15T12:49:10;2.97;;;1.20;;
12832;SDS011;6483;51.310;4.462;2022-07-15T12:51:40;1.52;;;0.88;;
12832;SDS011;6483;51.310;4.462;2022-07-15T12:54:06;2.13;;;1.17;;
12832;SDS011;6483;51.310;4.462;2022-07-15T12:56:50;3.00;;;1.02;;
12832;SDS011;6483;51.310;4.462;2022-07-15T12:59:16;2.55;;;0.90;;
12832;SDS011;6483;51.310;4.462;2022-07-15T13:01:43;1.58;;;0.65;;
12832;SDS011;6483;51.310;4.462;2022-07-15T13:04:09;1.20;;;0.70;;
12832;SDS011;6483;51.310;4.462;2022-07-15T13:06:35;2.35;;;1.17;;
12832;SDS011;6483;51.310;4.462;2022-07-15T13:09:01;2.85;;;0.95;;
12832;SDS011;6483;51.310;4.462;2022-07-15T13:11:27;1.40;;;0.85;;
12832;SDS011;6483;51.310;4.462;2022-07-15T13:13:54;2.55;;;0.90;;
12832;SDS011;6483;51.310;4.462;2022-07-15T13:16:20;2.78;;;0.90;;
12832;SDS011;6483;51.310;4.462;2022-07-15T13:18:46;2.55;;;1.10;;
12832;SDS011;6483;51.310;4.462;2022-07-15T13:21:12;2.88;;;1.20;;
12832;SDS011;6483;51.310;4.462;2022-07-15T13:23:38;3.80;;;1.13;;
12832;SDS011;6483;51.310;4.462;2022-07-15T13:26:04;3.80;;;1.60;;
12832;SDS011;6483;51.310;4.462;2022-07-15T13:28:30;3.97;;;1.30;;
12832;SDS011;6483;51.310;4.462;2022-07-15T13:30:56;4.07;;;1.05;;
12832;SDS011;6483;51.310;4.462;2022-07-15T13:33:22;1.52;;;0.65;;
12832;SDS011;6483;51.310;4.462;2022-07-15T13:35:48;3.05;;;1.38;;
12832;SDS011;6483;51.310;4.462;2022-07-15T13:38:14;4.93;;;1.05;;
12832;SDS011;6483;51.310;4.462;2022-07-15T13:40:40;1.38;;;0.73;;
12832;SDS011;6483;51.310;4.462;2022-07-15T13:43:06;4.13;;;1.15;;
12832;SDS011;6483;51.310;4.462;2022-07-15T13:45:32;3.63;;;0.85;;
12832;SDS011;6483;51.310;4.462;2022-07-15T13:47:58;1.30;;;0.95;;
12832;SDS011;6483;51.310;4.462;2022-07-15T13:50:24;1.90;;;0.80;;
12832;SDS011;6483;51.310;4.462;2022-07-15T13:53:09;1.05;;;0.80;;
12832;SDS011;6483;51.310;4.462;2022-07-15T13:55:35;5.53;;;1.48;;
12832;SDS011;6483;51.310;4.462;2022-07-15T13:58:01;2.85;;;1.00;;
12832;SDS011;6483;51.310;4.462;2022-07-15T14:00:27;4.60;;;0.90;;
12832;SDS011;6483;51.310;4.462;2022-07-15T14:02:53;2.30;;;1.10;;
12832;SDS011;6483;51.310;4.462;2022-07-15T14:05:20;4.95;;;1.20;;
12832;SDS011;6483;51.310;4.462;2022-07-15T14:07:49;4.45;;;1.05;;
12832;SDS011;6483;51.310;4.462;2022-07-15T14:10:18;4.25;;;1.40;;
12832;SDS011;6483;51.310;4.462;2022-07-15T14:12:47;4.63;;;1.20;;
12832;SDS011;6483;51.310;4.462;2022-07-15T14:15:14;1.85;;;1.13;;
12832;SDS011;6483;51.310;4.462;2022-07-15T14:17:46;1.67;;;1.10;;
12832;SDS011;6483;51.310;4.462;2022-07-15T14:20:12;1.30;;;0.73;;
12832;SDS011;6483;51.310;4.462;2022-07-15T14:22:40;4.25;;;1.42;;
12832;SDS011;6483;51.310;4.462;2022-07-15T14:25:09;3.47;;;1.38;;
12832;SDS011;6483;51.310;4.462;2022-07-15T14:27:35;1.90;;;1.08;;
12832;SDS011;6483;51.310;4.462;2022-07-15T14:30:02;3.92;;;1.35;;
12832;SDS011;6483;51.310;4.462;2022-07-15T14:32:28;2.50;;;1.33;;
12832;SDS011;6483;51.310;4.462;2022-07-15T14:34:54;2.28;;;1.13;;
12832;SDS011;6483;51.310;4.462;2022-07-15T14:37:23;2.55;;;1.20;;
12832;SDS011;6483;51.310;4.462;2022-07-15T14:39:49;3.80;;;1.50;;
12832;SDS011;6483;51.310;4.462;2022-07-15T14:42:15;5.82;;;1.30;;
12832;SDS011;6483;51.310;4.462;2022-07-15T14:44:41;3.00;;;1.02;;
12832;SDS011;6483;51.310;4.462;2022-07-15T14:47:10;3.92;;;1.30;;
12832;SDS011;6483;51.310;4.462;2022-07-15T14:49:36;2.80;;;1.27;;
12832;SDS011;6483;51.310;4.462;2022-07-15T14:52:02;3.53;;;1.40;;
12832;SDS011;6483;51.310;4.462;2022-07-15T14:54:29;5.00;;;1.30;;
12832;SDS011;6483;51.310;4.462;2022-07-15T14:56:59;1.65;;;1.35;;
12832;SDS011;6483;51.310;4.462;2022-07-15T14:59:25;3.10;;;1.30;;
12832;SDS011;6483;51.310;4.462;2022-07-15T15:01:51;4.65;;;1.90;;
12832;SDS011;6483;51.310;4.462;2022-07-15T15:04:18;3.28;;;1.45;;
12832;SDS011;6483;51.310;4.462;2022-07-15T15:06:47;5.70;;;1.70;;
12832;SDS011;6483;51.310;4.462;2022-07-15T15:09:13;3.05;;;1.40;;
12832;SDS011;6483;51.310;4.462;2022-07-15T15:11:45;2.60;;;1.08;;
12832;SDS011;6483;51.310;4.462;2022-07-15T15:14:11;5.55;;;0.98;;
12832;SDS011;6483;51.310;4.462;2022-07-15T15:16:37;2.50;;;1.23;;
12832;SDS011;6483;51.310;4.462;2022-07-15T15:19:07;2.28;;;1.30;;
12832;SDS011;6483;51.310;4.462;2022-07-15T15:21:33;2.53;;;1.40;;
12832;SDS011;6483;51.310;4.462;2022-07-15T15:24:00;4.03;;;1.50;;
12832;SDS011;6483;51.310;4.462;2022-07-15T15:26:26;2.20;;;1.52;;
12832;SDS011;6483;51.310;4.462;2022-07-15T15:28:53;5.07;;;1.58;;
12832;SDS011;6483;51.310;4.462;2022-07-15T15:31:19;4.13;;;1.23;;
12832;SDS011;6483;51.310;4.462;2022-07-15T15:33:48;3.53;;;1.65;;
12832;SDS011;6483;51.310;4.462;2022-07-15T15:36:14;4.22;;;1.60;;
12832;SDS011;6483;51.310;4.462;2022-07-15T15:38:40;2.22;;;1.15;;
12832;SDS011;6483;51.310;4.462;2022-07-15T15:41:10;2.05;;;1.40;;